sensor_id;sensor_type;location;lat;lon;timestamp;P1;durP1;ratioP1;P2;durP2;ratioP2
29026;SDS011;16120;48.608;9.092;2024-01-30T00:01:36;123.27;;;11.30;;
29026;SDS011;16120;48.608;9.092;2024-01-30T00:05:31;123.47;;;11.23;;
29026;SDS011;16120;48.608;9.092;2024-01-30T00:09:28;123.10;;;10.77;;
29026;SDS011;16120;48.608;9.092;2024-01-30T00:13:23;123.20;;;11.17;;
29026;SDS011;16120;48.608;9.092;2024-01-30T00:17:18;123.20;;;11.03;;
29026;SDS011;16120;48.608;9.092;2024-01-30T00:21:13;123.60;;;11.50;;
29026;SDS011;16120;48.608;9.092;2024-01-30T00:25:10;123.50;;;10.90;;
29026;SDS011;16120;48.608;9.092;2024-01-30T00:29:05;123.17;;;11.17;;
29026;SDS011;16120;48.608;9.092;2024-01-30T00:33:00;123.23;;;11.27;;
29026;SDS011;16120;48.608;9.092;2024-01-30T00:36:55;123.33;;;11.30;;
29026;SDS011;16120;48.608;9.092;2024-01-30T00:40:52;122.97;;;11.50;;
29026;SDS011;16120;48.608;9.092;2024-01-30T00:44:47;123.30;;;11.40;;
29026;SDS011;16120;48.608;9.092;2024-01-30T00:48:42;123.80;;;12.00;;
29026;SDS011;16120;48.608;9.092;2024-01-30T00:52:37;123.50;;;11.13;;
29026;SDS011;16120;48.608;9.092;2024-01-30T00:56:34;123.07;;;11.13;;
29026;SDS011;16120;48.608;9.092;2024-01-30T01:00:29;122.57;;;11.17;;
29026;SDS011;16120;48.608;9.092;2024-01-30T01:04:24;123.30;;;11.73;;
29026;SDS011;16120;48.608;9.092;2024-01-30T01:08:20;124.15;;;11.80;;
29026;SDS011;16120;48.608;9.092;2024-01-30T01:12:16;123.78;;;11.50;;
29026;SDS011;16120;48.608;9.092;2024-01-30T01:16:11;122.40;;;10.67;;
29026;SDS011;16120;48.608;9.092;2024-01-30T01:20:07;122.87;;;10.80;;
29026;SDS011;16120;48.608;9.092;2024-01-30T01:24:02;122.97;;;10.87;;
29026;SDS011;16120;48.608;9.092;2024-01-30T01:27:59;122.57;;;11.23;;
29026;SDS011;16120;48.608;9.092;2024-01-30T01:31:54;123.20;;;11.83;;
29026;SDS011;16120;48.608;9.092;2024-01-30T01:35:49;123.23;;;11.07;;
29026;SDS011;16120;48.608;9.092;2024-01-30T01:39:44;122.97;;;11.13;;
29026;SDS011;16120;48.608;9.092;2024-01-30T01:43:41;123.30;;;11.50;;
29026;SDS011;16120;48.608;9.092;2024-01-30T01:47:36;122.50;;;11.17;;
29026;SDS011;16120;48.608;9.092;2024-01-30T01:51:33;123.00;;;10.83;;
29026;SDS011;16120;48.608;9.092;2024-01-30T01:55:29;123.70;;;11.40;;
29026;SDS011;16120;48.608;9.092;2024-01-30T01:59:26;122.87;;;10.20;;
29026;SDS011;16120;48.608;9.092;2024-01-30T02:03:21;123.97;;;11.83;;
29026;SDS011;16120;48.608;9.092;2024-01-30T02:07:16;122.60;;;11.03;;
29026;SDS011;16120;48.608;9.092;2024-01-30T02:11:12;122.57;;;11.07;;
29026;SDS011;16120;48.608;9.092;2024-01-30T02:15:08;123.10;;;11.30;;
29026;SDS011;16120;48.608;9.092;2024-01-30T02:19:08;123.20;;;11.70;;
29026;SDS011;16120;48.608;9.092;2024-01-30T02:23:04;122.83;;;11.20;;
29026;SDS011;16120;48.608;9.092;2024-01-30T02:26:59;123.83;;;11.60;;
29026;SDS011;16120;48.608;9.092;2024-01-30T02:30:55;123.07;;;10.40;;
29026;SDS011;16120;48.608;9.092;2024-01-30T02:34:50;123.53;;;11.47;;
29026;SDS011;16120;48.608;9.092;2024-01-30T02:38:46;121.90;;;10.60;;
29026;SDS011;16120;48.608;9.092;2024-01-30T02:42:42;123.50;;;11.13;;
29026;SDS011;16120;48.608;9.092;2024-01-30T02:46:37;123.20;;;11.40;;
29026;SDS011;16120;48.608;9.092;2024-01-30T02:50:33;122.47;;;10.90;;
29026;SDS011;16120;48.608;9.092;2024-01-30T02:54:29;122.97;;;10.63;;
29026;SDS011;16120;48.608;9.092;2024-01-30T02:58:24;123.67;;;10.90;;
29026;SDS011;16120;48.608;9.092;2024-01-30T03:02:19;123.70;;;11.70;;
29026;SDS011;16120;48.608;9.092;2024-01-30T03:06:15;122.97;;;11.30;;
29026;SDS011;16120;48.608;9.092;2024-01-30T03:10:11;123.28;;;10.57;;
29026;SDS011;16120;48.608;9.092;2024-01-30T03:14:06;123.40;;;10.80;;
29026;SDS011;16120;48.608;9.092;2024-01-30T03:18:02;124.00;;;12.13;;
29026;SDS011;16120;48.608;9.092;2024-01-30T03:21:57;123.57;;;10.83;;
29026;SDS011;16120;48.608;9.092;2024-01-30T03:25:53;123.57;;;11.50;;
29026;SDS011;16120;48.608;9.092;2024-01-30T03:29:49;123.17;;;10.90;;
29026;SDS011;16120;48.608;9.092;2024-01-30T03:33:44;123.63;;;11.17;;
29026;SDS011;16120;48.608;9.092;2024-01-30T03:37:39;124.23;;;11.20;;
29026;SDS011;16120;48.608;9.092;2024-01-30T03:41:35;123.67;;;11.20;;
29026;SDS011;16120;48.608;9.092;2024-01-30T03:45:31;123.37;;;11.37;;
29026;SDS011;16120;48.608;9.092;2024-01-30T03:49:26;123.85;;;10.93;;
29026;SDS011;16120;48.608;9.092;2024-01-30T03:53:21;122.80;;;11.07;;
29026;SDS011;16120;48.608;9.092;2024-01-30T03:57:18;123.73;;;11.03;;
29026;SDS011;16120;48.608;9.092;2024-01-30T04:01:13;123.80;;;11.20;;
29026;SDS011;16120;48.608;9.092;2024-01-30T04:05:08;123.93;;;11.37;;
29026;SDS011;16120;48.608;9.092;2024-01-30T04:09:04;123.43;;;10.90;;
29026;SDS011;16120;48.608;9.092;2024-01-30T04:13:00;123.40;;;11.23;;
29026;SDS011;16120;48.608;9.092;2024-01-30T04:16:55;123.77;;;10.97;;
29026;SDS011;16120;48.608;9.092;2024-01-30T04:20:50;123.20;;;11.60;;
29026;SDS011;16120;48.608;9.092;2024-01-30T04:24:46;123.67;;;10.90;;
29026;SDS011;16120;48.608;9.092;2024-01-30T04:28:43;124.00;;;11.47;;
29026;SDS011;16120;48.608;9.092;2024-01-30T04:32:39;124.27;;;11.50;;
29026;SDS011;16120;48.608;9.092;2024-01-30T04:36:34;123.50;;;11.07;;
29026;SDS011;16120;48.608;9.092;2024-01-30T04:40:29;123.50;;;10.97;;
29026;SDS011;16120;48.608;9.092;2024-01-30T04:44:26;123.30;;;11.00;;
29026;SDS011;16120;48.608;9.092;2024-01-30T04:48:21;123.57;;;10.80;;
29026;SDS011;16120;48.608;9.092;2024-01-30T04:52:16;123.80;;;11.23;;
29026;SDS011;16120;48.608;9.092;2024-01-30T04:56:11;123.93;;;11.00;;
29026;SDS011;16120;48.608;9.092;2024-01-30T05:00:09;123.60;;;11.80;;
29026;SDS011;16120;48.608;9.092;2024-01-30T05:04:07;124.27;;;10.80;;
29026;SDS011;16120;48.608;9.092;2024-01-30T05:08:02;123.70;;;11.20;;
29026;SDS011;16120;48.608;9.092;2024-01-30T05:11:57;124.30;;;11.20;;
29026;SDS011;16120;48.608;9.092;2024-01-30T05:15:54;124.70;;;12.27;;
29026;SDS011;16120;48.608;9.092;2024-01-30T05:19:49;123.60;;;11.20;;
29026;SDS011;16120;48.608;9.092;2024-01-30T05:23:44;123.40;;;11.00;;
29026;SDS011;16120;48.608;9.092;2024-01-30T05:27:39;124.57;;;11.27;;
29026;SDS011;16120;48.608;9.092;2024-01-30T05:31:36;123.97;;;10.70;;
29026;SDS011;16120;48.608;9.092;2024-01-30T05:35:31;124.27;;;10.83;;
29026;SDS011;16120;48.608;9.092;2024-01-30T05:39:26;124.07;;;10.77;;
29026;SDS011;16120;48.608;9.092;2024-01-30T05:43:21;123.57;;;11.13;;
29026;SDS011;16120;48.608;9.092;2024-01-30T05:47:18;124.07;;;11.30;;
29026;SDS011;16120;48.608;9.092;2024-01-30T05:51:13;124.07;;;11.47;;
29026;SDS011;16120;48.608;9.092;2024-01-30T05:55:08;124.47;;;11.30;;
29026;SDS011;16120;48.608;9.092;2024-01-30T05:59:03;124.17;;;11.50;;
29026;SDS011;16120;48.608;9.092;2024-01-30T06:03:00;124.63;;;11.57;;
29026;SDS011;16120;48.608;9.092;2024-01-30T06:06:55;125.17;;;11.70;;
29026;SDS011;16120;48.608;9.092;2024-01-30T06:10:50;123.50;;;11.07;;
29026;SDS011;16120;48.608;9.092;2024-01-30T06:14:46;124.17;;;10.60;;
29026;SDS011;16120;48.608;9.092;2024-01-30T06:18:42;124.17;;;10.70;;
29026;SDS011;16120;48.608;9.092;2024-01-30T06:22:37;124.40;;;11.50;;
29026;SDS011;16120;48.608;9.092;2024-01-30T06:26:33;123.77;;;10.37;;
29026;SDS011;16120;48.608;9.092;2024-01-30T06:30:29;125.03;;;11.17;;
29026;SDS011;16120;48.608;9.092;2024-01-30T06:34:25;124.50;;;11.00;;
29026;SDS011;16120;48.608;9.092;2024-01-30T06:38:20;124.37;;;10.83;;
29026;SDS011;16120;48.608;9.092;2024-01-30T06:42:15;124.80;;;11.67;;
29026;SDS011;16120;48.608;9.092;2024-01-30T06:46:11;125.30;;;11.23;;
29026;SDS011;16120;48.608;9.092;2024-01-30T06:50:08;125.68;;;11.80;;
29026;SDS011;16120;48.608;9.092;2024-01-30T06:54:03;124.57;;;11.80;;
29026;SDS011;16120;48.608;9.092;2024-01-30T06:57:58;124.60;;;11.00;;
29026;SDS011;16120;48.608;9.092;2024-01-30T07:01:53;124.67;;;11.40;;
29026;SDS011;16120;48.608;9.092;2024-01-30T07:05:50;124.77;;;11.83;;
29026;SDS011;16120;48.608;9.092;2024-01-30T07:09:45;123.80;;;10.47;;
29026;SDS011;16120;48.608;9.092;2024-01-30T07:13:40;124.60;;;11.67;;
29026;SDS011;16120;48.608;9.092;2024-01-30T07:17:36;124.10;;;11.10;;
29026;SDS011;16120;48.608;9.092;2024-01-30T07:21:32;125.10;;;11.80;;
29026;SDS011;16120;48.608;9.092;2024-01-30T07:25:27;125.10;;;11.90;;
29026;SDS011;16120;48.608;9.092;2024-01-30T07:29:22;123.80;;;11.20;;
29026;SDS011;16120;48.608;9.092;2024-01-30T07:33:18;124.50;;;11.73;;
29026;SDS011;16120;48.608;9.092;2024-01-30T07:37:14;124.93;;;11.30;;
29026;SDS011;16120;48.608;9.092;2024-01-30T07:41:09;124.17;;;11.30;;
29026;SDS011;16120;48.608;9.092;2024-01-30T07:45:05;123.70;;;11.00;;
29026;SDS011;16120;48.608;9.092;2024-01-30T07:49:00;123.73;;;10.77;;
29026;SDS011;16120;48.608;9.092;2024-01-30T07:52:57;123.30;;;10.90;;
29026;SDS011;16120;48.608;9.092;2024-01-30T07:56:52;123.93;;;11.13;;
29026;SDS011;16120;48.608;9.092;2024-01-30T08:00:47;124.47;;;10.98;;
29026;SDS011;16120;48.608;9.092;2024-01-30T08:04:42;123.17;;;11.50;;
29026;SDS011;16120;48.608;9.092;2024-01-30T08:08:39;123.50;;;11.30;;
29026;SDS011;16120;48.608;9.092;2024-01-30T08:12:34;125.27;;;12.00;;
29026;SDS011;16120;48.608;9.092;2024-01-30T08:16:29;122.70;;;12.10;;
29026;SDS011;16120;48.608;9.092;2024-01-30T08:20:24;123.77;;;11.37;;
29026;SDS011;16120;48.608;9.092;2024-01-30T08:24:21;123.60;;;11.97;;
29026;SDS011;16120;48.608;9.092;2024-01-30T08:28:16;123.67;;;12.10;;
29026;SDS011;16120;48.608;9.092;2024-01-30T08:32:11;123.07;;;11.27;;
29026;SDS011;16120;48.608;9.092;2024-01-30T08:36:09;123.77;;;11.80;;
29026;SDS011;16120;48.608;9.092;2024-01-30T08:40:07;122.97;;;10.80;;
29026;SDS011;16120;48.608;9.092;2024-01-30T08:44:02;122.80;;;11.27;;
29026;SDS011;16120;48.608;9.092;2024-01-30T08:47:57;122.77;;;11.17;;
29026;SDS011;16120;48.608;9.092;2024-01-30T08:51:52;122.27;;;11.47;;
29026;SDS011;16120;48.608;9.092;2024-01-30T08:55:49;122.10;;;11.67;;
29026;SDS011;16120;48.608;9.092;2024-01-30T08:59:44;121.37;;;10.47;;
29026;SDS011;16120;48.608;9.092;2024-01-30T09:03:39;120.80;;;10.13;;
29026;SDS011;16120;48.608;9.092;2024-01-30T09:07:35;119.70;;;9.83;;
29026;SDS011;16120;48.608;9.092;2024-01-30T09:11:31;118.27;;;9.40;;
29026;SDS011;16120;48.608;9.092;2024-01-30T09:15:26;118.50;;;9.80;;
29026;SDS011;16120;48.608;9.092;2024-01-30T09:19:22;117.07;;;9.23;;
29026;SDS011;16120;48.608;9.092;2024-01-30T09:23:17;117.47;;;9.50;;
29026;SDS011;16120;48.608;9.092;2024-01-30T09:27:13;116.57;;;9.07;;
29026;SDS011;16120;48.608;9.092;2024-01-30T09:31:09;115.77;;;9.13;;
29026;SDS011;16120;48.608;9.092;2024-01-30T09:35:04;115.43;;;8.70;;
29026;SDS011;16120;48.608;9.092;2024-01-30T09:38:59;114.97;;;8.83;;
29026;SDS011;16120;48.608;9.092;2024-01-30T09:42:56;114.07;;;8.43;;
29026;SDS011;16120;48.608;9.092;2024-01-30T09:46:52;114.60;;;9.20;;
29026;SDS011;16120;48.608;9.092;2024-01-30T09:50:48;113.88;;;8.40;;
29026;SDS011;16120;48.608;9.092;2024-01-30T09:54:43;113.17;;;8.63;;
29026;SDS011;16120;48.608;9.092;2024-01-30T09:58:39;113.00;;;8.32;;
29026;SDS011;16120;48.608;9.092;2024-01-30T10:02:35;112.93;;;8.30;;
29026;SDS011;16120;48.608;9.092;2024-01-30T10:06:30;112.87;;;8.33;;
29026;SDS011;16120;48.608;9.092;2024-01-30T10:10:25;112.37;;;8.03;;
29026;SDS011;16120;48.608;9.092;2024-01-30T10:14:22;111.72;;;8.20;;
29026;SDS011;16120;48.608;9.092;2024-01-30T10:18:17;112.10;;;8.47;;
29026;SDS011;16120;48.608;9.092;2024-01-30T10:22:12;111.47;;;8.07;;
29026;SDS011;16120;48.608;9.092;2024-01-30T10:26:07;110.97;;;7.93;;
29026;SDS011;16120;48.608;9.092;2024-01-30T10:30:05;110.87;;;8.00;;
29026;SDS011;16120;48.608;9.092;2024-01-30T10:34:00;111.23;;;8.07;;
29026;SDS011;16120;48.608;9.092;2024-01-30T10:37:56;110.72;;;7.90;;
29026;SDS011;16120;48.608;9.092;2024-01-30T10:41:51;110.47;;;7.60;;
29026;SDS011;16120;48.608;9.092;2024-01-30T10:45:51;110.60;;;7.97;;
29026;SDS011;16120;48.608;9.092;2024-01-30T10:49:48;110.00;;;7.90;;
29026;SDS011;16120;48.608;9.092;2024-01-30T10:53:44;109.57;;;7.70;;
29026;SDS011;16120;48.608;9.092;2024-01-30T10:57:41;109.50;;;8.00;;
29026;SDS011;16120;48.608;9.092;2024-01-30T11:01:37;110.40;;;7.97;;
29026;SDS011;16120;48.608;9.092;2024-01-30T11:05:32;109.17;;;7.83;;
29026;SDS011;16120;48.608;9.092;2024-01-30T11:09:28;108.97;;;7.57;;
29026;SDS011;16120;48.608;9.092;2024-01-30T11:13:26;109.43;;;8.07;;
29026;SDS011;16120;48.608;9.092;2024-01-30T11:17:23;108.50;;;7.97;;
29026;SDS011;16120;48.608;9.092;2024-01-30T11:21:22;108.43;;;8.00;;
29026;SDS011;16120;48.608;9.092;2024-01-30T11:25:20;108.33;;;8.13;;
29026;SDS011;16120;48.608;9.092;2024-01-30T11:29:16;108.67;;;8.33;;
29026;SDS011;16120;48.608;9.092;2024-01-30T11:33:13;108.40;;;7.97;;
29026;SDS011;16120;48.608;9.092;2024-01-30T11:37:09;107.87;;;8.20;;
29026;SDS011;16120;48.608;9.092;2024-01-30T11:41:05;107.80;;;8.23;;
29026;SDS011;16120;48.608;9.092;2024-01-30T11:45:00;107.90;;;8.57;;
29026;SDS011;16120;48.608;9.092;2024-01-30T11:48:57;107.97;;;8.47;;
29026;SDS011;16120;48.608;9.092;2024-01-30T11:52:53;107.97;;;8.60;;
29026;SDS011;16120;48.608;9.092;2024-01-30T11:56:49;107.83;;;8.07;;
29026;SDS011;16120;48.608;9.092;2024-01-30T12:00:52;108.20;;;8.33;;
29026;SDS011;16120;48.608;9.092;2024-01-30T12:04:48;107.73;;;8.73;;
29026;SDS011;16120;48.608;9.092;2024-01-30T12:08:54;108.17;;;8.57;;
29026;SDS011;16120;48.608;9.092;2024-01-30T12:12:49;107.47;;;8.73;;
29026;SDS011;16120;48.608;9.092;2024-01-30T12:16:47;107.60;;;8.67;;
29026;SDS011;16120;48.608;9.092;2024-01-30T12:20:44;106.57;;;8.37;;
29026;SDS011;16120;48.608;9.092;2024-01-30T12:24:39;107.13;;;7.70;;
29026;SDS011;16120;48.608;9.092;2024-01-30T12:28:34;106.90;;;8.63;;
29026;SDS011;16120;48.608;9.092;2024-01-30T12:32:29;106.80;;;8.00;;
29026;SDS011;16120;48.608;9.092;2024-01-30T12:36:26;106.93;;;8.10;;
29026;SDS011;16120;48.608;9.092;2024-01-30T12:40:23;107.17;;;8.90;;
29026;SDS011;16120;48.608;9.092;2024-01-30T12:44:18;106.50;;;8.40;;
29026;SDS011;16120;48.608;9.092;2024-01-30T12:48:13;107.27;;;8.77;;
29026;SDS011;16120;48.608;9.092;2024-01-30T12:52:10;106.60;;;8.63;;
29026;SDS011;16120;48.608;9.092;2024-01-30T12:56:05;107.07;;;8.30;;
29026;SDS011;16120;48.608;9.092;2024-01-30T13:00:00;106.20;;;8.50;;
29026;SDS011;16120;48.608;9.092;2024-01-30T13:03:55;106.73;;;8.20;;
29026;SDS011;16120;48.608;9.092;2024-01-30T13:07:52;105.97;;;7.97;;
29026;SDS011;16120;48.608;9.092;2024-01-30T13:11:47;107.70;;;8.13;;
29026;SDS011;16120;48.608;9.092;2024-01-30T13:15:42;106.50;;;8.63;;
29026;SDS011;16120;48.608;9.092;2024-01-30T13:19:38;105.90;;;7.97;;
29026;SDS011;16120;48.608;9.092;2024-01-30T13:23:34;105.53;;;7.93;;
29026;SDS011;16120;48.608;9.092;2024-01-30T13:27:29;105.00;;;8.00;;
29026;SDS011;16120;48.608;9.092;2024-01-30T13:31:24;105.63;;;7.60;;
29026;SDS011;16120;48.608;9.092;2024-01-30T13:35:20;105.23;;;8.17;;
29026;SDS011;16120;48.608;9.092;2024-01-30T13:39:16;105.10;;;8.13;;
29026;SDS011;16120;48.608;9.092;2024-01-30T13:43:11;105.67;;;8.60;;
29026;SDS011;16120;48.608;9.092;2024-01-30T13:47:06;105.13;;;7.70;;
29026;SDS011;16120;48.608;9.092;2024-01-30T13:51:02;105.70;;;8.70;;
29026;SDS011;16120;48.608;9.092;2024-01-30T13:54:58;105.10;;;8.43;;
29026;SDS011;16120;48.608;9.092;2024-01-30T13:58:53;106.10;;;8.83;;
29026;SDS011;16120;48.608;9.092;2024-01-30T14:02:48;106.27;;;8.03;;
29026;SDS011;16120;48.608;9.092;2024-01-30T14:06:45;106.10;;;7.70;;
29026;SDS011;16120;48.608;9.092;2024-01-30T14:10:41;105.17;;;8.37;;
29026;SDS011;16120;48.608;9.092;2024-01-30T14:14:36;105.57;;;7.77;;
29026;SDS011;16120;48.608;9.092;2024-01-30T14:18:32;106.07;;;8.10;;
29026;SDS011;16120;48.608;9.092;2024-01-30T14:22:27;105.07;;;8.23;;
29026;SDS011;16120;48.608;9.092;2024-01-30T14:26:23;104.87;;;8.17;;
29026;SDS011;16120;48.608;9.092;2024-01-30T14:30:18;104.70;;;8.17;;
29026;SDS011;16120;48.608;9.092;2024-01-30T14:34:14;105.97;;;8.47;;
29026;SDS011;16120;48.608;9.092;2024-01-30T14:38:09;104.77;;;8.27;;
29026;SDS011;16120;48.608;9.092;2024-01-30T14:42:06;105.20;;;8.50;;
29026;SDS011;16120;48.608;9.092;2024-01-30T14:46:01;104.63;;;8.37;;
29026;SDS011;16120;48.608;9.092;2024-01-30T14:49:56;105.07;;;8.53;;
29026;SDS011;16120;48.608;9.092;2024-01-30T14:53:51;104.67;;;8.17;;
29026;SDS011;16120;48.608;9.092;2024-01-30T14:57:48;105.47;;;7.80;;
29026;SDS011;16120;48.608;9.092;2024-01-30T15:01:43;105.57;;;8.23;;
29026;SDS011;16120;48.608;9.092;2024-01-30T15:05:38;105.57;;;8.50;;
29026;SDS011;16120;48.608;9.092;2024-01-30T15:09:34;106.47;;;8.90;;
29026;SDS011;16120;48.608;9.092;2024-01-30T15:13:30;106.37;;;8.90;;
29026;SDS011;16120;48.608;9.092;2024-01-30T15:17:25;105.87;;;8.13;;
29026;SDS011;16120;48.608;9.092;2024-01-30T15:21:21;107.10;;;9.20;;
29026;SDS011;16120;48.608;9.092;2024-01-30T15:25:16;106.57;;;8.10;;
29026;SDS011;16120;48.608;9.092;2024-01-30T15:29:12;106.47;;;9.27;;
29026;SDS011;16120;48.608;9.092;2024-01-30T15:33:08;106.67;;;8.30;;
29026;SDS011;16120;48.608;9.092;2024-01-30T15:37:03;106.57;;;8.60;;
29026;SDS011;16120;48.608;9.092;2024-01-30T15:40:58;108.57;;;7.77;;
29026;SDS011;16120;48.608;9.092;2024-01-30T15:44:55;109.15;;;8.20;;
29026;SDS011;16120;48.608;9.092;2024-01-30T15:48:50;106.50;;;8.10;;
29026;SDS011;16120;48.608;9.092;2024-01-30T15:52:45;107.97;;;8.80;;
29026;SDS011;16120;48.608;9.092;2024-01-30T15:56:40;107.53;;;8.37;;
29026;SDS011;16120;48.608;9.092;2024-01-30T16:00:37;106.90;;;8.30;;
29026;SDS011;16120;48.608;9.092;2024-01-30T16:04:32;108.57;;;9.20;;
29026;SDS011;16120;48.608;9.092;2024-01-30T16:08:27;107.63;;;8.50;;
29026;SDS011;16120;48.608;9.092;2024-01-30T16:12:22;106.77;;;8.57;;
29026;SDS011;16120;48.608;9.092;2024-01-30T16:16:19;108.60;;;8.23;;
29026;SDS011;16120;48.608;9.092;2024-01-30T16:20:14;108.50;;;8.40;;
29026;SDS011;16120;48.608;9.092;2024-01-30T16:24:09;108.60;;;8.57;;
29026;SDS011;16120;48.608;9.092;2024-01-30T16:28:05;108.53;;;8.50;;
29026;SDS011;16120;48.608;9.092;2024-01-30T16:32:01;108.77;;;8.27;;
29026;SDS011;16120;48.608;9.092;2024-01-30T16:35:56;108.87;;;8.87;;
29026;SDS011;16120;48.608;9.092;2024-01-30T16:39:52;108.87;;;8.60;;
29026;SDS011;16120;48.608;9.092;2024-01-30T16:43:47;108.03;;;8.20;;
29026;SDS011;16120;48.608;9.092;2024-01-30T16:47:43;108.73;;;8.13;;
29026;SDS011;16120;48.608;9.092;2024-01-30T16:51:38;109.80;;;8.30;;
29026;SDS011;16120;48.608;9.092;2024-01-30T16:55:34;108.80;;;7.80;;
29026;SDS011;16120;48.608;9.092;2024-01-30T16:59:29;108.97;;;7.87;;
29026;SDS011;16120;48.608;9.092;2024-01-30T17:03:25;109.07;;;7.80;;
29026;SDS011;16120;48.608;9.092;2024-01-30T17:07:20;109.57;;;8.57;;
29026;SDS011;16120;48.608;9.092;2024-01-30T17:11:16;109.20;;;7.80;;
29026;SDS011;16120;48.608;9.092;2024-01-30T17:15:11;109.77;;;7.97;;
29026;SDS011;16120;48.608;9.092;2024-01-30T17:19:08;109.67;;;8.20;;
29026;SDS011;16120;48.608;9.092;2024-01-30T17:23:03;109.30;;;7.67;;
29026;SDS011;16120;48.608;9.092;2024-01-30T17:26:58;109.27;;;7.60;;
29026;SDS011;16120;48.608;9.092;2024-01-30T17:30:53;109.83;;;7.80;;
29026;SDS011;16120;48.608;9.092;2024-01-30T17:34:50;109.97;;;7.87;;
29026;SDS011;16120;48.608;9.092;2024-01-30T17:38:45;109.80;;;7.83;;
29026;SDS011;16120;48.608;9.092;2024-01-30T17:42:40;109.60;;;7.67;;
29026;SDS011;16120;48.608;9.092;2024-01-30T17:46:35;110.20;;;7.63;;
29026;SDS011;16120;48.608;9.092;2024-01-30T17:50:32;109.97;;;7.90;;
29026;SDS011;16120;48.608;9.092;2024-01-30T17:54:27;110.10;;;7.70;;
29026;SDS011;16120;48.608;9.092;2024-01-30T17:58:22;110.47;;;8.13;;
29026;SDS011;16120;48.608;9.092;2024-01-30T18:02:17;110.03;;;7.90;;
29026;SDS011;16120;48.608;9.092;2024-01-30T18:06:14;110.93;;;8.03;;
29026;SDS011;16120;48.608;9.092;2024-01-30T18:10:09;110.50;;;8.60;;
29026;SDS011;16120;48.608;9.092;2024-01-30T18:14:04;110.73;;;7.93;;
29026;SDS011;16120;48.608;9.092;2024-01-30T18:18:00;110.77;;;7.93;;
29026;SDS011;16120;48.608;9.092;2024-01-30T18:21:56;111.03;;;8.38;;
29026;SDS011;16120;48.608;9.092;2024-01-30T18:25:51;110.40;;;7.80;;
29026;SDS011;16120;48.608;9.092;2024-01-30T18:29:46;110.93;;;8.47;;
29026;SDS011;16120;48.608;9.092;2024-01-30T18:33:42;111.60;;;8.70;;
29026;SDS011;16120;48.608;9.092;2024-01-30T18:37:38;111.40;;;8.33;;
29026;SDS011;16120;48.608;9.092;2024-01-30T18:41:33;111.70;;;8.97;;
29026;SDS011;16120;48.608;9.092;2024-01-30T18:45:28;111.70;;;8.73;;
29026;SDS011;16120;48.608;9.092;2024-01-30T18:49:24;113.37;;;9.10;;
29026;SDS011;16120;48.608;9.092;2024-01-30T18:53:20;112.20;;;9.43;;
29026;SDS011;16120;48.608;9.092;2024-01-30T18:57:15;112.30;;;9.37;;
29026;SDS011;16120;48.608;9.092;2024-01-30T19:01:11;111.97;;;9.23;;
29026;SDS011;16120;48.608;9.092;2024-01-30T19:05:06;112.20;;;9.33;;
29026;SDS011;16120;48.608;9.092;2024-01-30T19:09:03;112.27;;;9.27;;
29026;SDS011;16120;48.608;9.092;2024-01-30T19:12:58;112.27;;;8.90;;
29026;SDS011;16120;48.608;9.092;2024-01-30T19:16:53;112.17;;;8.60;;
29026;SDS011;16120;48.608;9.092;2024-01-30T19:20:49;112.27;;;9.20;;
29026;SDS011;16120;48.608;9.092;2024-01-30T19:24:45;112.27;;;8.03;;
29026;SDS011;16120;48.608;9.092;2024-01-30T19:28:41;112.47;;;9.00;;
29026;SDS011;16120;48.608;9.092;2024-01-30T19:32:36;112.40;;;9.10;;
29026;SDS011;16120;48.608;9.092;2024-01-30T19:36:31;112.57;;;8.70;;
29026;SDS011;16120;48.608;9.092;2024-01-30T19:40:28;112.67;;;8.80;;
29026;SDS011;16120;48.608;9.092;2024-01-30T19:44:23;112.87;;;8.80;;
29026;SDS011;16120;48.608;9.092;2024-01-30T19:48:18;112.40;;;9.00;;
29026;SDS011;16120;48.608;9.092;2024-01-30T19:52:13;112.90;;;8.97;;
29026;SDS011;16120;48.608;9.092;2024-01-30T19:56:10;111.90;;;9.20;;
29026;SDS011;16120;48.608;9.092;2024-01-30T20:00:06;113.10;;;9.30;;
29026;SDS011;16120;48.608;9.092;2024-01-30T20:04:01;111.27;;;8.50;;
29026;SDS011;16120;48.608;9.092;2024-01-30T20:07:56;112.47;;;9.40;;
29026;SDS011;16120;48.608;9.092;2024-01-30T20:11:53;116.33;;;9.17;;
29026;SDS011;16120;48.608;9.092;2024-01-30T20:15:48;112.10;;;8.60;;
29026;SDS011;16120;48.608;9.092;2024-01-30T20:19:44;112.90;;;8.83;;
29026;SDS011;16120;48.608;9.092;2024-01-30T20:23:39;112.40;;;9.17;;
29026;SDS011;16120;48.608;9.092;2024-01-30T20:27:35;112.40;;;8.90;;
29026;SDS011;16120;48.608;9.092;2024-01-30T20:31:31;114.10;;;9.43;;
29026;SDS011;16120;48.608;9.092;2024-01-30T20:35:26;112.30;;;9.20;;
29026;SDS011;16120;48.608;9.092;2024-01-30T20:39:21;112.47;;;8.60;;
29026;SDS011;16120;48.608;9.092;2024-01-30T20:43:18;112.60;;;8.63;;
29026;SDS011;16120;48.608;9.092;2024-01-30T20:47:13;113.37;;;8.80;;
29026;SDS011;16120;48.608;9.092;2024-01-30T20:51:08;113.10;;;8.27;;
29026;SDS011;16120;48.608;9.092;2024-01-30T20:55:03;112.10;;;8.23;;
29026;SDS011;16120;48.608;9.092;2024-01-30T20:59:00;111.77;;;8.07;;
29026;SDS011;16120;48.608;9.092;2024-01-30T21:02:55;113.27;;;8.40;;
29026;SDS011;16120;48.608;9.092;2024-01-30T21:06:50;113.90;;;8.73;;
29026;SDS011;16120;48.608;9.092;2024-01-30T21:10:45;111.80;;;8.60;;
29026;SDS011;16120;48.608;9.092;2024-01-30T21:14:42;113.60;;;8.73;;
29026;SDS011;16120;48.608;9.092;2024-01-30T21:18:37;113.07;;;9.00;;
29026;SDS011;16120;48.608;9.092;2024-01-30T21:22:32;113.37;;;8.67;;
29026;SDS011;16120;48.608;9.092;2024-01-30T21:26:28;113.47;;;8.87;;
29026;SDS011;16120;48.608;9.092;2024-01-30T21:30:24;114.17;;;9.17;;
29026;SDS011;16120;48.608;9.092;2024-01-30T21:34:19;113.77;;;9.10;;
29026;SDS011;16120;48.608;9.092;2024-01-30T21:38:15;113.27;;;8.77;;
29026;SDS011;16120;48.608;9.092;2024-01-30T21:42:11;114.33;;;9.07;;
29026;SDS011;16120;48.608;9.092;2024-01-30T21:46:07;112.77;;;9.03;;
29026;SDS011;16120;48.608;9.092;2024-01-30T21:50:03;113.07;;;8.80;;
29026;SDS011;16120;48.608;9.092;2024-01-30T21:53:58;113.37;;;9.30;;
29026;SDS011;16120;48.608;9.092;2024-01-30T21:57:53;113.10;;;8.70;;
29026;SDS011;16120;48.608;9.092;2024-01-30T22:01:53;113.37;;;8.50;;
29026;SDS011;16120;48.608;9.092;2024-01-30T22:05:48;113.30;;;8.47;;
29026;SDS011;16120;48.608;9.092;2024-01-30T22:09:43;113.50;;;8.60;;
29026;SDS011;16120;48.608;9.092;2024-01-30T22:13:38;113.43;;;8.50;;
29026;SDS011;16120;48.608;9.092;2024-01-30T22:17:35;114.07;;;8.73;;
29026;SDS011;16120;48.608;9.092;2024-01-30T22:21:30;114.00;;;8.47;;
29026;SDS011;16120;48.608;9.092;2024-01-30T22:25:25;113.30;;;8.43;;
29026;SDS011;16120;48.608;9.092;2024-01-30T22:29:20;114.43;;;8.50;;
29026;SDS011;16120;48.608;9.092;2024-01-30T22:33:17;113.47;;;7.97;;
29026;SDS011;16120;48.608;9.092;2024-01-30T22:37:12;114.27;;;9.10;;
29026;SDS011;16120;48.608;9.092;2024-01-30T22:41:07;113.67;;;8.57;;
29026;SDS011;16120;48.608;9.092;2024-01-30T22:45:03;114.37;;;8.90;;
29026;SDS011;16120;48.608;9.092;2024-01-30T22:48:59;113.10;;;8.33;;